Terminal Aerodrome Forecast
Issued by NWS

Home | Current Version | Previous Version | Text Only | Print | Product List | Glossary On
Versions: 1 2 3 4 5 6 7 8 9 10 11 12 13 14
000
FTUS46 KPDT 260007 AAA
TAFRDM
TAF AMD
KRDM 260007Z 2600/2624 35010KT P6SM SCT120
     FM260200 34010KT P6SM VCTS FEW090CB BKN120
     FM260700 VRB06KT P6SM SCT120 BKN200
     FM261100 18003KT P6SM SCT130 BKN150
     FM262200 31015G25KT P6SM SCT080 BKN120=

USA.gov is the U.S. government's official web portal to all federal, state and local government web resources and services.